sensor_id;sensor_type;location;lat;lon;timestamp;pressure;altitude;pressure_sealevel;temperature;humidity
49943;BME280;36011;53.362;58.948;2023-04-01T00:01:03;97580.66;;;-1.08;71.96
49943;BME280;36011;53.362;58.948;2023-04-01T00:04:08;97588.44;;;-1.09;72.04
49943;BME280;36011;53.362;58.948;2023-04-01T00:07:15;97585.84;;;-1.11;71.96
49943;BME280;36011;53.362;58.948;2023-04-01T00:10:19;97584.19;;;-1.15;72.55
49943;BME280;36011;53.362;58.948;2023-04-01T00:13:26;97574.75;;;-1.22;72.75
49943;BME280;36011;53.362;58.948;2023-04-01T00:16:33;97589.41;;;-1.26;72.59
49943;BME280;36011;53.362;58.948;2023-04-01T00:19:40;97575.66;;;-1.29;73.02
49943;BME280;36011;53.362;58.948;2023-04-01T00:22:44;97573.94;;;-1.27;73.29
49943;BME280;36011;53.362;58.948;2023-04-01T00:25:51;97570.47;;;-1.26;72.95
49943;BME280;36011;53.362;58.948;2023-04-01T00:28:55;97580.78;;;-1.23;73.28
49943;BME280;36011;53.362;58.948;2023-04-01T00:31:59;97584.25;;;-1.24;73.09
49943;BME280;36011;53.362;58.948;2023-04-01T00:35:03;97582.50;;;-1.25;73.57
49943;BME280;36011;53.362;58.948;2023-04-01T00:38:10;97591.16;;;-1.29;72.84
49943;BME280;36011;53.362;58.948;2023-04-01T00:41:18;97579.97;;;-1.27;73.16
49943;BME280;36011;53.362;58.948;2023-04-01T00:44:30;97584.28;;;-1.27;72.86
49943;BME280;36011;53.362;58.948;2023-04-01T00:47:39;97551.63;;;-1.38;73.39
49943;BME280;36011;53.362;58.948;2023-04-01T00:50:48;97561.00;;;-1.26;72.84
49943;BME280;36011;53.362;58.948;2023-04-01T00:53:56;97572.13;;;-1.13;72.71
49943;BME280;36011;53.362;58.948;2023-04-01T00:57:02;97576.38;;;-1.09;72.83
49943;BME280;36011;53.362;58.948;2023-04-01T01:00:11;97572.03;;;-1.04;72.71
49943;BME280;36011;53.362;58.948;2023-04-01T01:03:18;97566.00;;;-1.01;72.80
49943;BME280;36011;53.362;58.948;2023-04-01T01:16:36;97570.28;;;-0.99;72.60
49943;BME280;36011;53.362;58.948;2023-04-01T01:19:55;97560.84;;;-1.04;73.15
49943;BME280;36011;53.362;58.948;2023-04-01T01:33:39;97565.97;;;-0.98;73.00
49943;BME280;36011;53.362;58.948;2023-04-01T01:36:55;97582.25;;;-0.87;72.71
49943;BME280;36011;53.362;58.948;2023-04-01T01:40:07;97585.56;;;-0.74;72.67
49943;BME280;36011;53.362;58.948;2023-04-01T01:43:16;97570.78;;;-0.58;72.68
49943;BME280;36011;53.362;58.948;2023-04-01T01:46:26;97570.59;;;-0.40;72.37
49943;BME280;36011;53.362;58.948;2023-04-01T01:49:34;97578.19;;;-0.26;72.16
49943;BME280;36011;53.362;58.948;2023-04-01T01:52:40;97564.38;;;-0.22;71.73
49943;BME280;36011;53.362;58.948;2023-04-01T01:55:48;97572.88;;;-0.11;71.65
49943;BME280;36011;53.362;58.948;2023-04-01T01:58:55;97588.22;;;0.05;71.04
49943;BME280;36011;53.362;58.948;2023-04-01T02:02:02;97571.75;;;0.12;71.13
49943;BME280;36011;53.362;58.948;2023-04-01T02:05:14;97586.13;;;0.34;70.29
49943;BME280;36011;53.362;58.948;2023-04-01T02:08:41;97584.28;;;0.46;69.97
49943;BME280;36011;53.362;58.948;2023-04-01T02:11:57;97580.78;;;0.47;69.78
49943;BME280;36011;53.362;58.948;2023-04-01T02:15:09;97579.06;;;0.47;70.22
49943;BME280;36011;53.362;58.948;2023-04-01T02:18:16;97568.66;;;0.52;69.43
49943;BME280;36011;53.362;58.948;2023-04-01T02:21:20;97567.66;;;0.59;69.98
49943;BME280;36011;53.362;58.948;2023-04-01T02:24:27;97551.97;;;0.70;69.09
49943;BME280;36011;53.362;58.948;2023-04-01T02:27:34;97564.69;;;0.86;69.12
49943;BME280;36011;53.362;58.948;2023-04-01T02:30:39;97571.44;;;0.97;68.15
49943;BME280;36011;53.362;58.948;2023-04-01T02:33:44;97571.28;;;1.06;68.46
49943;BME280;36011;53.362;58.948;2023-04-01T02:36:48;97559.19;;;1.06;68.03
49943;BME280;36011;53.362;58.948;2023-04-01T02:39:50;97559.91;;;1.15;68.05
49943;BME280;36011;53.362;58.948;2023-04-01T02:42:57;97572.81;;;1.19;67.77
49943;BME280;36011;53.362;58.948;2023-04-01T02:46:08;97575.28;;;1.25;67.68
49943;BME280;36011;53.362;58.948;2023-04-01T02:49:11;97570.91;;;1.27;67.86
49943;BME280;36011;53.362;58.948;2023-04-01T02:52:13;97569.09;;;1.32;67.30
49943;BME280;36011;53.362;58.948;2023-04-01T02:55:14;97565.50;;;1.43;67.61
49943;BME280;36011;53.362;58.948;2023-04-01T02:58:19;97568.88;;;1.48;67.17
49943;BME280;36011;53.362;58.948;2023-04-01T03:01:24;97566.16;;;1.54;67.55
49943;BME280;36011;53.362;58.948;2023-04-01T03:04:28;97566.94;;;1.57;66.71
49943;BME280;36011;53.362;58.948;2023-04-01T03:07:36;97584.25;;;1.57;66.72
49943;BME280;36011;53.362;58.948;2023-04-01T03:10:48;97582.63;;;1.50;67.07
49943;BME280;36011;53.362;58.948;2023-04-01T03:13:51;97581.91;;;1.43;67.73
49943;BME280;36011;53.362;58.948;2023-04-01T03:16:57;97568.09;;;1.43;66.73
49943;BME280;36011;53.362;58.948;2023-04-01T03:20:07;97577.56;;;1.44;67.11
49943;BME280;36011;53.362;58.948;2023-04-01T03:23:18;97577.59;;;1.42;67.23
49943;BME280;36011;53.362;58.948;2023-04-01T03:26:25;97587.94;;;1.44;66.75
49943;BME280;36011;53.362;58.948;2023-04-01T03:29:31;97567.28;;;1.39;67.22
49943;BME280;36011;53.362;58.948;2023-04-01T03:32:37;97564.34;;;1.57;67.24
49943;BME280;36011;53.362;58.948;2023-04-01T03:35:39;97588.94;;;2.28;66.14
49943;BME280;36011;53.362;58.948;2023-04-01T03:38:45;97591.03;;;2.91;64.69
49943;BME280;36011;53.362;58.948;2023-04-01T03:41:49;97583.97;;;3.34;63.33
49943;BME280;36011;53.362;58.948;2023-04-01T03:44:53;97589.88;;;3.75;62.41
49943;BME280;36011;53.362;58.948;2023-04-01T03:47:59;97600.06;;;4.15;61.50
49943;BME280;36011;53.362;58.948;2023-04-01T03:51:07;97604.28;;;4.50;60.61
49943;BME280;36011;53.362;58.948;2023-04-01T03:54:09;97605.63;;;4.93;59.65
49943;BME280;36011;53.362;58.948;2023-04-01T03:57:15;97600.44;;;5.20;59.15
49943;BME280;36011;53.362;58.948;2023-04-01T04:00:20;97591.09;;;5.13;58.80
49943;BME280;36011;53.362;58.948;2023-04-01T04:03:21;97597.06;;;5.16;58.97
49943;BME280;36011;53.362;58.948;2023-04-01T04:06:26;97606.97;;;5.33;58.46
49943;BME280;36011;53.362;58.948;2023-04-01T04:09:33;97602.94;;;5.76;57.37
49943;BME280;36011;53.362;58.948;2023-04-01T04:12:42;97604.88;;;6.46;56.47
49943;BME280;36011;53.362;58.948;2023-04-01T04:15:52;97607.88;;;7.27;54.85
49943;BME280;36011;53.362;58.948;2023-04-01T04:18:58;97612.56;;;7.83;53.54
49943;BME280;36011;53.362;58.948;2023-04-01T04:22:02;97616.38;;;8.17;52.08
49943;BME280;36011;53.362;58.948;2023-04-01T04:25:04;97617.03;;;8.42;51.45
49943;BME280;36011;53.362;58.948;2023-04-01T04:28:14;97617.50;;;8.71;50.28
49943;BME280;36011;53.362;58.948;2023-04-01T04:31:20;97605.75;;;8.61;49.64
49943;BME280;36011;53.362;58.948;2023-04-01T04:34:22;97605.16;;;8.73;50.03
49943;BME280;36011;53.362;58.948;2023-04-01T04:37:27;97597.81;;;8.81;48.67
49943;BME280;36011;53.362;58.948;2023-04-01T04:40:32;97600.28;;;8.84;48.42
49943;BME280;36011;53.362;58.948;2023-04-01T04:43:33;97607.47;;;8.81;47.87
49943;BME280;36011;53.362;58.948;2023-04-01T04:46:34;97614.22;;;8.66;48.21
49943;BME280;36011;53.362;58.948;2023-04-01T04:49:42;97616.75;;;8.48;48.25
49943;BME280;36011;53.362;58.948;2023-04-01T04:52:49;97611.00;;;8.20;48.21
49943;BME280;36011;53.362;58.948;2023-04-01T04:55:55;97612.19;;;7.92;48.52
49943;BME280;36011;53.362;58.948;2023-04-01T04:59:04;97611.88;;;7.57;49.11
49943;BME280;36011;53.362;58.948;2023-04-01T05:02:09;97607.28;;;7.42;49.27
49943;BME280;36011;53.362;58.948;2023-04-01T05:05:12;97591.94;;;7.33;49.67
49943;BME280;36011;53.362;58.948;2023-04-01T05:08:14;97599.47;;;7.40;49.61
49943;BME280;36011;53.362;58.948;2023-04-01T05:11:21;97597.41;;;7.49;49.69
49943;BME280;36011;53.362;58.948;2023-04-01T05:14:25;97600.06;;;7.47;49.15
49943;BME280;36011;53.362;58.948;2023-04-01T05:17:27;97599.00;;;7.31;48.65
49943;BME280;36011;53.362;58.948;2023-04-01T05:20:31;97601.53;;;7.10;49.21
49943;BME280;36011;53.362;58.948;2023-04-01T05:23:39;97609.03;;;6.97;49.46
49943;BME280;36011;53.362;58.948;2023-04-01T05:26:43;97614.75;;;7.07;49.06
49943;BME280;36011;53.362;58.948;2023-04-01T05:29:45;97613.06;;;9.28;44.90
49943;BME280;36011;53.362;58.948;2023-04-01T05:32:50;97616.56;;;13.52;37.59
49943;BME280;36011;53.362;58.948;2023-04-01T05:35:56;97616.22;;;17.57;32.66
49943;BME280;36011;53.362;58.948;2023-04-01T05:39:02;97606.09;;;20.76;28.62
49943;BME280;36011;53.362;58.948;2023-04-01T05:42:06;97607.78;;;22.41;25.43
49943;BME280;36011;53.362;58.948;2023-04-01T05:45:08;97596.53;;;23.50;23.27
49943;BME280;36011;53.362;58.948;2023-04-01T05:48:12;97605.06;;;24.70;22.71
49943;BME280;36011;53.362;58.948;2023-04-01T05:51:17;97599.81;;;25.48;20.83
49943;BME280;36011;53.362;58.948;2023-04-01T05:54:23;97605.41;;;26.47;20.12
49943;BME280;36011;53.362;58.948;2023-04-01T05:57:28;97595.06;;;28.20;18.65
49943;BME280;36011;53.362;58.948;2023-04-01T06:00:32;97596.69;;;28.86;17.60
49943;BME280;36011;53.362;58.948;2023-04-01T06:03:35;97589.16;;;29.51;17.20
49943;BME280;36011;53.362;58.948;2023-04-01T06:06:39;97583.72;;;29.51;16.80
49943;BME280;36011;53.362;58.948;2023-04-01T06:09:46;97584.88;;;29.35;16.02
49943;BME280;36011;53.362;58.948;2023-04-01T06:13:06;97577.00;;;28.71;16.11
49943;BME280;36011;53.362;58.948;2023-04-01T06:20:10;97577.69;;;28.08;16.01
49943;BME280;36011;53.362;58.948;2023-04-01T06:23:44;97565.84;;;27.07;16.61
49943;BME280;36011;53.362;58.948;2023-04-01T06:30:10;97561.63;;;28.78;15.69
49943;BME280;36011;53.362;58.948;2023-04-01T06:37:01;97569.56;;;30.90;13.77
49943;BME280;36011;53.362;58.948;2023-04-01T06:40:09;97565.69;;;31.38;13.79
49943;BME280;36011;53.362;58.948;2023-04-01T06:47:24;97565.59;;;30.93;12.91
49943;BME280;36011;53.362;58.948;2023-04-01T06:54:14;97550.38;;;31.50;12.94
49943;BME280;36011;53.362;58.948;2023-04-01T06:57:25;97543.16;;;31.69;12.66
49943;BME280;36011;53.362;58.948;2023-04-01T07:00:36;97539.56;;;32.38;12.42
49943;BME280;36011;53.362;58.948;2023-04-01T07:03:47;97549.34;;;32.53;12.05
49943;BME280;36011;53.362;58.948;2023-04-01T07:10:23;97562.72;;;32.54;12.27
49943;BME280;36011;53.362;58.948;2023-04-01T07:13:33;97554.75;;;31.96;12.12
49943;BME280;36011;53.362;58.948;2023-04-01T07:16:48;97546.16;;;31.99;11.77
49943;BME280;36011;53.362;58.948;2023-04-01T07:23:47;97546.31;;;29.94;13.14
49943;BME280;36011;53.362;58.948;2023-04-01T07:26:58;97557.16;;;29.81;12.80
49943;BME280;36011;53.362;58.948;2023-04-01T07:30:06;97566.63;;;30.78;12.50
49943;BME280;36011;53.362;58.948;2023-04-01T07:33:25;97565.03;;;31.94;11.79
49943;BME280;36011;53.362;58.948;2023-04-01T07:53:31;97540.03;;;31.07;11.94
49943;BME280;36011;53.362;58.948;2023-04-01T08:00:11;97521.38;;;28.75;13.05
49943;BME280;36011;53.362;58.948;2023-04-01T08:03:44;97515.16;;;29.09;12.89
49943;BME280;36011;53.362;58.948;2023-04-01T08:07:08;97520.13;;;29.05;12.99
49943;BME280;36011;53.362;58.948;2023-04-01T08:10:35;97525.38;;;29.14;12.61
49943;BME280;36011;53.362;58.948;2023-04-01T08:20:44;97512.38;;;28.68;12.59
49943;BME280;36011;53.362;58.948;2023-04-01T08:23:52;97495.56;;;27.94;13.08
49943;BME280;36011;53.362;58.948;2023-04-01T08:27:01;97521.38;;;28.75;12.80
49943;BME280;36011;53.362;58.948;2023-04-01T08:30:32;97506.91;;;28.96;12.75
49943;BME280;36011;53.362;58.948;2023-04-01T08:33:39;97488.50;;;28.21;13.05
49943;BME280;36011;53.362;58.948;2023-04-01T08:36:53;97504.44;;;29.42;12.67
49943;BME280;36011;53.362;58.948;2023-04-01T08:57:20;97489.44;;;28.35;13.42
49943;BME280;36011;53.362;58.948;2023-04-01T09:00:31;97494.91;;;27.92;13.92
49943;BME280;36011;53.362;58.948;2023-04-01T09:14:23;97506.31;;;28.37;13.46
49943;BME280;36011;53.362;58.948;2023-04-01T09:27:56;97494.22;;;27.84;14.39
49943;BME280;36011;53.362;58.948;2023-04-01T09:38:14;97491.63;;;26.73;14.15
49943;BME280;36011;53.362;58.948;2023-04-01T09:41:32;97492.91;;;27.07;14.30
49943;BME280;36011;53.362;58.948;2023-04-01T09:48:19;97483.59;;;27.24;14.76
49943;BME280;36011;53.362;58.948;2023-04-01T09:55:56;97474.47;;;26.36;15.11
49943;BME280;36011;53.362;58.948;2023-04-01T09:58:40;97467.25;;;25.76;15.58
49943;BME280;36011;53.362;58.948;2023-04-01T10:46:04;97465.56;;;23.52;17.57
49943;BME280;36011;53.362;58.948;2023-04-01T11:03:03;97457.53;;;22.59;18.90
49943;BME280;36011;53.362;58.948;2023-04-01T11:13:33;97453.03;;;21.10;20.56
49943;BME280;36011;53.362;58.948;2023-04-01T11:44:20;97431.34;;;20.30;22.01
49943;BME280;36011;53.362;58.948;2023-04-01T11:48:07;97428.75;;;20.01;22.33
49943;BME280;36011;53.362;58.948;2023-04-01T12:26:10;97421.25;;;16.25;24.83
49943;BME280;36011;53.362;58.948;2023-04-01T12:29:44;97421.22;;;15.68;25.40
49943;BME280;36011;53.362;58.948;2023-04-01T12:36:30;97430.25;;;14.82;26.92
49943;BME280;36011;53.362;58.948;2023-04-01T12:55:57;97413.50;;;13.83;28.91
49943;BME280;36011;53.362;58.948;2023-04-01T13:13:12;97437.25;;;13.04;31.47
49943;BME280;36011;53.362;58.948;2023-04-01T13:16:26;97441.13;;;12.86;31.48
49943;BME280;36011;53.362;58.948;2023-04-01T13:19:49;97439.72;;;12.39;32.34
49943;BME280;36011;53.362;58.948;2023-04-01T13:26:29;97449.66;;;11.93;33.99
49943;BME280;36011;53.362;58.948;2023-04-01T13:29:59;97457.72;;;11.75;34.72
49943;BME280;36011;53.362;58.948;2023-04-01T13:42:41;97448.66;;;9.94;38.23
49943;BME280;36011;53.362;58.948;2023-04-01T13:49:36;97452.34;;;9.89;38.84
49943;BME280;36011;53.362;58.948;2023-04-01T14:00:30;97451.50;;;9.04;40.94
49943;BME280;36011;53.362;58.948;2023-04-01T14:04:09;97448.72;;;8.89;41.52
49943;BME280;36011;53.362;58.948;2023-04-01T14:13:52;97458.94;;;8.20;43.68
49943;BME280;36011;53.362;58.948;2023-04-01T14:20:36;97465.28;;;7.76;44.51
49943;BME280;36011;53.362;58.948;2023-04-01T14:33:30;97469.00;;;7.09;47.38
49943;BME280;36011;53.362;58.948;2023-04-01T14:36:48;97475.09;;;6.88;47.31
49943;BME280;36011;53.362;58.948;2023-04-01T14:40:16;97494.41;;;6.85;47.63
49943;BME280;36011;53.362;58.948;2023-04-01T14:47:01;97493.84;;;6.55;49.14
49943;BME280;36011;53.362;58.948;2023-04-01T14:50:15;97493.53;;;6.41;49.65
49943;BME280;36011;53.362;58.948;2023-04-01T14:53:31;97497.47;;;6.29;49.77
49943;BME280;36011;53.362;58.948;2023-04-01T14:56:44;97503.44;;;6.33;49.41
49943;BME280;36011;53.362;58.948;2023-04-01T14:59:53;97502.94;;;6.23;49.66
49943;BME280;36011;53.362;58.948;2023-04-01T15:03:18;97512.50;;;6.22;49.75
49943;BME280;36011;53.362;58.948;2023-04-01T15:09:39;97519.38;;;6.01;49.74
49943;BME280;36011;53.362;58.948;2023-04-01T15:22:49;97549.75;;;5.54;50.69
49943;BME280;36011;53.362;58.948;2023-04-01T15:42:25;97577.16;;;5.14;52.16
49943;BME280;36011;53.362;58.948;2023-04-01T15:49:20;97581.53;;;5.13;52.12
49943;BME280;36011;53.362;58.948;2023-04-01T15:52:48;97574.94;;;5.02;52.03
49943;BME280;36011;53.362;58.948;2023-04-01T16:09:56;97581.81;;;4.76;52.80
49943;BME280;36011;53.362;58.948;2023-04-01T16:23:22;97583.97;;;4.62;53.36
49943;BME280;36011;53.362;58.948;2023-04-01T16:36:52;97575.00;;;4.42;54.61
49943;BME280;36011;53.362;58.948;2023-04-01T16:43:13;97572.66;;;4.33;55.45
49943;BME280;36011;53.362;58.948;2023-04-01T16:46:52;97569.31;;;4.28;56.24
49943;BME280;36011;53.362;58.948;2023-04-01T16:50:15;97563.66;;;4.43;56.73
49943;BME280;36011;53.362;58.948;2023-04-01T16:53:53;97563.56;;;4.46;56.85
49943;BME280;36011;53.362;58.948;2023-04-01T17:03:29;97573.94;;;4.18;58.62
49943;BME280;36011;53.362;58.948;2023-04-01T17:13:41;97573.75;;;3.93;59.82
49943;BME280;36011;53.362;58.948;2023-04-01T17:17:10;97574.00;;;3.84;59.75
49943;BME280;36011;53.362;58.948;2023-04-01T17:23:39;97559.22;;;3.86;60.21
49943;BME280;36011;53.362;58.948;2023-04-01T17:37:06;97564.00;;;3.69;61.11
49943;BME280;36011;53.362;58.948;2023-04-01T17:51:36;97555.88;;;3.48;61.53
49943;BME280;36011;53.362;58.948;2023-04-01T17:54:45;97548.19;;;3.44;61.60
49943;BME280;36011;53.362;58.948;2023-04-01T17:58:03;97555.25;;;3.38;62.00
49943;BME280;36011;53.362;58.948;2023-04-01T18:01:35;97540.47;;;3.39;61.98
49943;BME280;36011;53.362;58.948;2023-04-01T18:08:12;97546.69;;;3.33;62.57
49943;BME280;36011;53.362;58.948;2023-04-01T18:11:44;97547.63;;;3.31;62.24
49943;BME280;36011;53.362;58.948;2023-04-01T18:15:26;97546.59;;;3.36;62.29
49943;BME280;36011;53.362;58.948;2023-04-01T18:21:52;97553.38;;;3.44;62.25
49943;BME280;36011;53.362;58.948;2023-04-01T18:25:02;97550.13;;;3.34;62.24
49943;BME280;36011;53.362;58.948;2023-04-01T18:31:22;97547.84;;;3.23;62.46
49943;BME280;36011;53.362;58.948;2023-04-01T18:38:34;97551.63;;;3.08;63.43
49943;BME280;36011;53.362;58.948;2023-04-01T18:52:39;97557.78;;;2.68;63.43
49943;BME280;36011;53.362;58.948;2023-04-01T18:55:54;97568.06;;;2.75;63.70
49943;BME280;36011;53.362;58.948;2023-04-01T19:02:40;97564.88;;;2.60;64.10
49943;BME280;36011;53.362;58.948;2023-04-01T19:05:52;97557.38;;;2.48;63.53
49943;BME280;36011;53.362;58.948;2023-04-01T19:09:17;97558.34;;;2.42;64.08
49943;BME280;36011;53.362;58.948;2023-04-01T19:16:02;97573.28;;;2.33;64.15
49943;BME280;36011;53.362;58.948;2023-04-01T19:25:55;97562.56;;;2.06;63.30
49943;BME280;36011;53.362;58.948;2023-04-01T19:29:12;97562.03;;;1.89;63.52
49943;BME280;36011;53.362;58.948;2023-04-01T19:35:47;97553.06;;;1.60;64.21
49943;BME280;36011;53.362;58.948;2023-04-01T19:43:02;97553.34;;;1.45;64.85
49943;BME280;36011;53.362;58.948;2023-04-01T19:46:30;97550.94;;;1.34;63.99
49943;BME280;36011;53.362;58.948;2023-04-01T19:49:49;97551.97;;;1.25;64.46
49943;BME280;36011;53.362;58.948;2023-04-01T19:52:58;97550.41;;;1.15;64.44
49943;BME280;36011;53.362;58.948;2023-04-01T19:56:22;97550.50;;;1.09;64.86
49943;BME280;36011;53.362;58.948;2023-04-01T19:59:57;97557.53;;;1.02;65.31
49943;BME280;36011;53.362;58.948;2023-04-01T20:09:55;97566.38;;;0.87;64.77
49943;BME280;36011;53.362;58.948;2023-04-01T20:13:12;97563.06;;;0.79;64.90
49943;BME280;36011;53.362;58.948;2023-04-01T20:16:20;97552.91;;;0.64;65.13
49943;BME280;36011;53.362;58.948;2023-04-01T20:19:43;97561.56;;;0.63;64.96
49943;BME280;36011;53.362;58.948;2023-04-01T20:26:12;97562.56;;;0.53;65.30
49943;BME280;36011;53.362;58.948;2023-04-01T20:39:34;97562.78;;;0.37;65.59
49943;BME280;36011;53.362;58.948;2023-04-01T20:49:42;97567.25;;;0.26;65.90
49943;BME280;36011;53.362;58.948;2023-04-01T20:52:56;97570.69;;;0.27;65.47
49943;BME280;36011;53.362;58.948;2023-04-01T21:13:24;97560.88;;;-0.16;65.78
49943;BME280;36011;53.362;58.948;2023-04-01T21:16:47;97564.34;;;-0.19;65.94
49943;BME280;36011;53.362;58.948;2023-04-01T21:40:31;97549.13;;;-0.47;65.68
49943;BME280;36011;53.362;58.948;2023-04-01T21:47:16;97550.94;;;-0.55;65.54
49943;BME280;36011;53.362;58.948;2023-04-01T21:57:21;97548.50;;;-0.70;65.37
49943;BME280;36011;53.362;58.948;2023-04-01T22:00:42;97548.56;;;-0.78;65.74
49943;BME280;36011;53.362;58.948;2023-04-01T22:04:05;97552.91;;;-0.81;65.72
49943;BME280;36011;53.362;58.948;2023-04-01T22:07:17;97558.09;;;-0.84;66.25
49943;BME280;36011;53.362;58.948;2023-04-01T22:13:46;97557.25;;;-0.86;65.73
49943;BME280;36011;53.362;58.948;2023-04-01T22:17:05;97566.75;;;-0.87;65.67
49943;BME280;36011;53.362;58.948;2023-04-01T22:20:35;97546.19;;;-1.01;66.29
49943;BME280;36011;53.362;58.948;2023-04-01T22:30:40;97558.31;;;-1.12;66.05
49943;BME280;36011;53.362;58.948;2023-04-01T22:40:41;97566.16;;;-1.23;66.68
49943;BME280;36011;53.362;58.948;2023-04-01T22:43:47;97561.84;;;-1.25;66.20
49943;BME280;36011;53.362;58.948;2023-04-01T22:50:40;97573.09;;;-1.29;66.20
49943;BME280;36011;53.362;58.948;2023-04-01T23:01:01;97566.16;;;-1.26;66.50
49943;BME280;36011;53.362;58.948;2023-04-01T23:04:09;97564.44;;;-1.25;67.00
49943;BME280;36011;53.362;58.948;2023-04-01T23:14:06;97556.56;;;-1.07;68.18
49943;BME280;36011;53.362;58.948;2023-04-01T23:21:18;97555.66;;;-1.03;67.69
49943;BME280;36011;53.362;58.948;2023-04-01T23:27:33;97554.00;;;-1.07;67.89
49943;BME280;36011;53.362;58.948;2023-04-01T23:33:39;97563.56;;;-1.21;67.37
49943;BME280;36011;53.362;58.948;2023-04-01T23:36:46;97562.75;;;-1.29;68.04
49943;BME280;36011;53.362;58.948;2023-04-01T23:42:56;97568.03;;;-1.46;68.18
49943;BME280;36011;53.362;58.948;2023-04-01T23:46:02;97573.22;;;-1.51;68.38
49943;BME280;36011;53.362;58.948;2023-04-01T23:49:31;97568.06;;;-1.52;68.69
49943;BME280;36011;53.362;58.948;2023-04-01T23:52:43;97579.31;;;-1.61;68.14
49943;BME280;36011;53.362;58.948;2023-04-01T23:55:53;97575.84;;;-1.57;68.67
49943;BME280;36011;53.362;58.948;2023-04-01T23:59:02;97564.66;;;-1.62;69.03
